createdAt,value
2017-10-31T00:01:59.721Z,25.60
2017-10-31T00:04:30.898Z,25.60
2017-10-31T00:07:01.313Z,25.60
2017-10-31T00:09:31.769Z,25.70
2017-10-31T00:12:02.175Z,25.70
2017-10-31T00:14:34.238Z,25.80
2017-10-31T00:17:04.678Z,25.80
2017-10-31T00:19:35.668Z,25.80
2017-10-31T00:22:07.122Z,25.80
2017-10-31T00:24:37.919Z,25.90
2017-10-31T00:27:08.374Z,25.90
2017-10-31T00:29:38.787Z,26.00
2017-10-31T00:32:09.266Z,26.00
2017-10-31T00:34:39.625Z,26.00
2017-10-31T00:37:11.464Z,26.10
2017-10-31T00:39:41.866Z,26.20
2017-10-31T00:42:13.079Z,26.40
2017-10-31T00:44:43.505Z,26.30
2017-10-31T00:47:13.915Z,26.40
2017-10-31T00:49:44.653Z,26.50
2017-10-31T00:52:15.097Z,26.50
2017-10-31T00:54:45.744Z,26.60
2017-10-31T00:57:16.997Z,26.80
2017-10-31T00:59:48.162Z,26.90
2017-10-31T01:02:18.587Z,26.80
2017-10-31T01:04:49.006Z,26.90
2017-10-31T01:07:20.769Z,27.10
2017-10-31T01:09:51.221Z,27.00
2017-10-31T01:12:21.605Z,27.10
2017-10-31T01:14:52.756Z,27.30
2017-10-31T01:17:23.907Z,27.40
2017-10-31T01:19:54.485Z,27.40
2017-10-31T01:22:24.855Z,27.50
2017-10-31T01:24:56.567Z,27.60
2017-10-31T01:27:26.991Z,27.60
2017-10-31T01:29:57.508Z,27.80
2017-10-31T01:32:27.984Z,27.80
2017-10-31T01:35:00.051Z,28.00
2017-10-31T01:37:31.775Z,28.00
2017-10-31T01:40:02.182Z,28.00
2017-10-31T01:42:32.680Z,28.00
2017-10-31T01:45:03.148Z,28.10
2017-10-31T01:47:33.639Z,28.10
2017-10-31T01:50:04.073Z,28.20
2017-10-31T01:52:34.534Z,28.20
2017-10-31T01:55:05.258Z,28.30
2017-10-31T01:57:35.715Z,28.40
2017-10-31T02:00:06.214Z,28.40
2017-10-31T02:02:36.684Z,28.40
2017-10-31T02:05:07.879Z,28.40
2017-10-31T02:07:38.666Z,28.40
2017-10-31T02:10:09.835Z,28.50
2017-10-31T02:12:40.553Z,28.50
2017-10-31T02:15:11.725Z,28.60
2017-10-31T02:17:42.138Z,28.60
2017-10-31T02:20:12.547Z,28.60
2017-10-31T02:22:43.849Z,28.70
2017-10-31T02:25:14.489Z,28.70
2017-10-31T02:27:44.918Z,28.70
2017-10-31T02:30:15.355Z,28.70
2017-10-31T02:32:46.595Z,28.80
2017-10-31T02:35:17.007Z,28.80
2017-10-31T02:37:47.715Z,28.90
2017-10-31T02:40:18.155Z,29.00
2017-10-31T02:42:49.941Z,29.00
2017-10-31T02:45:20.373Z,29.00
2017-10-31T02:47:50.793Z,29.10
2017-10-31T02:50:21.412Z,29.20
2017-10-31T02:52:51.818Z,29.30
2017-10-31T02:55:22.399Z,29.40
2017-10-31T02:57:53.583Z,29.70
2017-10-31T03:00:24.054Z,29.70
2017-10-31T03:02:54.416Z,29.90
2017-10-31T03:05:24.844Z,30.10
2017-10-31T03:07:55.629Z,30.20
2017-10-31T03:10:26.061Z,30.20
2017-10-31T03:12:57.030Z,30.20
2017-10-31T03:15:28.205Z,30.30
2017-10-31T03:17:58.695Z,30.30
2017-10-31T03:20:29.842Z,30.40
2017-10-31T03:23:01.095Z,30.30
2017-10-31T03:25:33.134Z,30.30
2017-10-31T03:28:03.534Z,30.30
2017-10-31T03:30:33.953Z,30.30
2017-10-31T03:33:04.464Z,30.50
2017-10-31T03:35:35.217Z,30.30
2017-10-31T03:38:05.673Z,30.20
2017-10-31T03:40:36.135Z,30.20
2017-10-31T03:43:06.955Z,30.10
2017-10-31T03:45:38.190Z,29.80
2017-10-31T03:48:09.536Z,29.80
2017-10-31T03:50:41.615Z,29.50
2017-10-31T03:53:12.845Z,29.70
2017-10-31T03:55:43.531Z,29.70
2017-10-31T03:58:13.948Z,29.60
2017-10-31T04:00:44.536Z,29.60
2017-10-31T04:03:15.039Z,29.60
2017-10-31T04:05:45.492Z,29.60
2017-10-31T04:08:15.910Z,29.30
2017-10-31T04:10:46.368Z,29.70
2017-10-31T04:13:18.450Z,29.90
2017-10-31T04:15:48.935Z,29.90
2017-10-31T04:18:19.659Z,30.00
2017-10-31T04:20:50.872Z,30.10
2017-10-31T04:23:21.290Z,30.00
2017-10-31T04:25:52.017Z,30.20
2017-10-31T04:28:22.372Z,30.30
2017-10-31T04:30:53.313Z,30.40
2017-10-31T04:33:28.961Z,30.50
2017-10-31T04:35:59.422Z,30.60
2017-10-31T04:38:30.631Z,30.80
2017-10-31T04:41:01.072Z,30.80
2017-10-31T04:43:31.907Z,30.80
2017-10-31T04:46:02.323Z,30.90
2017-10-31T04:48:32.807Z,30.90
2017-10-31T04:51:03.231Z,30.90
2017-10-31T04:53:33.669Z,30.90
2017-10-31T04:56:04.480Z,30.90
2017-10-31T04:58:35.755Z,30.80
2017-10-31T05:01:07.675Z,30.80
2017-10-31T05:03:38.103Z,30.80
2017-10-31T05:06:08.545Z,30.90
2017-10-31T05:08:39.776Z,30.90
2017-10-31T05:11:10.189Z,30.90
2017-10-31T05:13:41.766Z,31.10
2017-10-31T05:16:12.932Z,31.20
2017-10-31T05:18:43.352Z,31.20
2017-10-31T05:21:13.764Z,31.30
2017-10-31T05:23:44.981Z,31.30
2017-10-31T05:26:15.362Z,31.30
2017-10-31T05:28:45.795Z,31.30
2017-10-31T05:31:16.653Z,31.30
2017-10-31T05:33:47.073Z,31.30
2017-10-31T05:36:17.553Z,31.40
2017-10-31T05:38:48.765Z,31.40
2017-10-31T05:41:19.197Z,31.40
2017-10-31T05:43:49.938Z,31.40
2017-10-31T05:46:20.427Z,31.40
2017-10-31T05:48:51.013Z,31.40
2017-10-31T05:51:22.260Z,31.40
2017-10-31T05:53:53.488Z,31.30
2017-10-31T05:56:24.273Z,31.30
2017-10-31T05:58:54.673Z,31.30
2017-10-31T06:01:26.397Z,31.20
2017-10-31T06:03:56.817Z,31.20
2017-10-31T06:06:27.258Z,31.20
2017-10-31T06:08:57.606Z,31.30
2017-10-31T06:11:28.790Z,31.20
2017-10-31T06:14:00.365Z,31.20
2017-10-31T06:16:30.808Z,31.20
2017-10-31T06:19:01.239Z,31.20
2017-10-31T06:21:31.857Z,31.20
2017-10-31T06:24:16.655Z,31.20
2017-10-31T06:26:53.319Z,31.20
2017-10-31T06:29:29.625Z,31.20
2017-10-31T06:32:05.136Z,31.20
2017-10-31T06:34:36.361Z,31.30
2017-10-31T06:37:06.755Z,31.30
2017-10-31T06:39:37.695Z,31.30
2017-10-31T06:42:09.152Z,31.40
2017-10-31T06:44:40.030Z,31.40
2017-10-31T06:47:11.231Z,31.40
2017-10-31T06:49:42.505Z,31.40
2017-10-31T06:52:12.985Z,31.40
2017-10-31T06:54:43.405Z,31.30
2017-10-31T06:57:14.314Z,31.40
2017-10-31T06:59:45.525Z,31.30
2017-10-31T07:02:15.880Z,31.30
2017-10-31T07:04:47.024Z,31.30
2017-10-31T07:07:18.251Z,31.40
2017-10-31T07:09:49.082Z,31.40
2017-10-31T07:12:19.483Z,31.50
2017-10-31T07:14:50.246Z,31.60
2017-10-31T07:17:20.718Z,31.70
2017-10-31T07:19:51.113Z,31.70
2017-10-31T07:22:22.324Z,31.70
2017-10-31T07:24:52.771Z,31.70
2017-10-31T07:27:23.549Z,31.70
2017-10-31T07:29:54.041Z,31.60
2017-10-31T07:32:24.587Z,31.60
2017-10-31T07:34:55.756Z,31.50
2017-10-31T07:37:26.158Z,31.50
2017-10-31T07:39:57.461Z,31.50
2017-10-31T07:42:27.810Z,31.50
2017-10-31T07:44:59.303Z,31.50
2017-10-31T07:47:29.733Z,31.40
2017-10-31T07:50:00.103Z,31.40
2017-10-31T07:52:30.549Z,31.30
2017-10-31T07:55:01.752Z,31.20
2017-10-31T07:57:32.495Z,31.20
2017-10-31T08:00:02.900Z,31.10
2017-10-31T08:02:34.032Z,31.00
2017-10-31T08:05:04.734Z,31.00
2017-10-31T08:07:36.153Z,30.90
2017-10-31T08:10:06.835Z,30.90
2017-10-31T08:12:37.487Z,30.90
2017-10-31T08:15:08.189Z,30.80
2017-10-31T08:17:39.385Z,30.80
2017-10-31T08:20:09.829Z,30.80
2017-10-31T08:22:40.569Z,30.80
2017-10-31T08:25:11.036Z,30.90
2017-10-31T08:27:42.386Z,30.90
2017-10-31T08:30:12.855Z,31.00
2017-10-31T08:32:43.559Z,31.10
2017-10-31T08:35:13.949Z,31.10
2017-10-31T08:37:45.158Z,31.20
2017-10-31T08:40:15.640Z,31.20
2017-10-31T08:42:46.122Z,31.30
2017-10-31T08:45:17.029Z,31.30
2017-10-31T08:47:47.514Z,31.40
2017-10-31T08:50:18.741Z,31.40
2017-10-31T08:52:49.168Z,31.40
2017-10-31T08:55:19.616Z,31.30
2017-10-31T08:57:51.334Z,31.30
2017-10-31T09:00:21.774Z,31.20
2017-10-31T09:02:52.538Z,31.20
2017-10-31T09:05:23.772Z,31.20
2017-10-31T09:07:54.981Z,31.20
2017-10-31T09:10:25.421Z,31.30
2017-10-31T09:12:55.769Z,31.30
2017-10-31T09:15:27.253Z,31.30
2017-10-31T09:17:57.710Z,31.20
2017-10-31T09:20:28.092Z,31.30
2017-10-31T09:22:58.513Z,31.20
2017-10-31T09:25:29.714Z,31.10
2017-10-31T09:28:00.172Z,31.10
2017-10-31T09:30:36.522Z,31.00
2017-10-31T09:33:07.372Z,31.10
2017-10-31T09:35:38.605Z,31.00
2017-10-31T09:38:09.171Z,30.90
2017-10-31T09:40:39.613Z,30.90
2017-10-31T09:43:10.014Z,30.90
2017-10-31T09:45:42.539Z,30.80
2017-10-31T09:48:12.995Z,30.80
2017-10-31T09:50:43.370Z,30.80
2017-10-31T09:53:13.823Z,30.70
2017-10-31T09:55:44.270Z,30.60
2017-10-31T09:58:15.221Z,30.50
2017-10-31T10:00:46.430Z,30.30
2017-10-31T10:03:17.074Z,30.30
2017-10-31T10:05:47.456Z,30.20
2017-10-31T10:08:17.877Z,30.10
2017-10-31T10:10:48.252Z,30.10
2017-10-31T10:13:18.652Z,30.00
2017-10-31T10:15:49.451Z,30.00
2017-10-31T10:18:20.623Z,29.90
2017-10-31T10:20:51.036Z,29.80
2017-10-31T10:23:21.524Z,29.80
2017-10-31T10:25:51.932Z,29.70
2017-10-31T10:28:22.394Z,29.70
2017-10-31T10:30:53.552Z,29.60
2017-10-31T10:33:25.171Z,29.60
2017-10-31T10:38:30.087Z,29.60
2017-10-31T10:41:00.525Z,29.60
2017-10-31T10:43:30.955Z,29.60
2017-10-31T10:46:01.638Z,29.50
2017-10-31T10:48:32.845Z,29.50
2017-10-31T10:51:03.543Z,29.50
2017-10-31T10:53:33.901Z,29.50
2017-10-31T10:56:05.054Z,29.40
2017-10-31T10:58:35.460Z,29.40
2017-10-31T11:01:05.895Z,29.30
2017-10-31T11:03:37.150Z,29.30
2017-10-31T11:06:07.586Z,29.20
2017-10-31T11:08:38.062Z,29.10
2017-10-31T11:11:08.496Z,29.00
2017-10-31T11:13:38.913Z,29.00
2017-10-31T11:16:09.555Z,29.00
2017-10-31T11:18:40.026Z,28.90
2017-10-31T11:21:10.684Z,28.90
2017-10-31T11:23:41.092Z,28.90
2017-10-31T11:26:12.282Z,28.80
2017-10-31T11:28:42.659Z,28.70
2017-10-31T11:31:13.802Z,28.70
2017-10-31T11:33:44.745Z,28.70
2017-10-31T11:36:15.976Z,28.70
2017-10-31T11:38:47.049Z,28.70
2017-10-31T11:41:18.464Z,28.60
2017-10-31T11:43:49.238Z,28.60
2017-10-31T11:46:20.156Z,28.60
2017-10-31T11:48:51.585Z,28.60
2017-10-31T11:51:24.367Z,28.60
2017-10-31T11:53:55.581Z,28.60
2017-10-31T11:56:26.120Z,28.50
2017-10-31T11:58:56.562Z,28.50
2017-10-31T12:01:27.020Z,28.50
2017-10-31T12:03:58.633Z,28.50
2017-10-31T12:06:29.132Z,28.40
2017-10-31T12:08:59.572Z,28.50
2017-10-31T12:11:29.976Z,28.50
2017-10-31T12:14:00.386Z,28.60
2017-10-31T12:16:31.930Z,28.70
2017-10-31T12:19:03.072Z,28.70
2017-10-31T12:21:34.598Z,28.80
2017-10-31T12:24:05.038Z,28.70
2017-10-31T12:26:35.455Z,28.80
2017-10-31T12:29:05.860Z,28.80
2017-10-31T12:31:36.295Z,28.80
2017-10-31T12:34:08.016Z,28.80
2017-10-31T12:36:38.425Z,28.80
2017-10-31T12:39:09.864Z,28.60
2017-10-31T12:41:41.034Z,28.50
2017-10-31T12:44:11.497Z,28.50
2017-10-31T12:46:42.251Z,28.40
2017-10-31T12:49:12.858Z,28.30
2017-10-31T12:51:43.581Z,28.30
2017-10-31T12:54:14.198Z,28.20
2017-10-31T12:56:44.770Z,28.20
2017-10-31T12:59:15.320Z,28.20
2017-10-31T13:01:46.565Z,28.20
2017-10-31T13:04:18.308Z,28.30
2017-10-31T13:06:49.713Z,28.20
2017-10-31T13:09:20.211Z,28.20
2017-10-31T13:11:51.963Z,28.10
2017-10-31T13:14:23.332Z,28.00
2017-10-31T13:16:53.847Z,27.90
2017-10-31T13:19:24.997Z,27.90
2017-10-31T13:21:56.588Z,27.80
2017-10-31T13:24:26.993Z,27.80
2017-10-31T13:26:57.943Z,27.80
2017-10-31T13:29:30.021Z,27.80
2017-10-31T13:32:01.464Z,27.70
2017-10-31T13:34:33.144Z,27.60
2017-10-31T13:37:04.491Z,27.70
2017-10-31T13:39:36.869Z,27.60
2017-10-31T13:42:07.892Z,27.60
2017-10-31T13:44:39.706Z,27.60
2017-10-31T13:47:11.459Z,27.60
2017-10-31T13:49:43.080Z,27.60
2017-10-31T13:52:14.364Z,27.60
2017-10-31T13:54:45.509Z,27.50
2017-10-31T13:57:16.720Z,27.50
2017-10-31T13:59:47.177Z,27.50
2017-10-31T14:02:18.909Z,27.40
2017-10-31T14:04:54.960Z,27.40
2017-10-31T14:07:25.694Z,27.40
2017-10-31T14:09:56.754Z,27.30
2017-10-31T14:12:28.552Z,27.30
2017-10-31T14:14:59.011Z,27.30
2017-10-31T14:17:29.407Z,27.30
2017-10-31T14:20:00.313Z,27.20
2017-10-31T14:22:31.701Z,27.20
2017-10-31T14:25:02.129Z,27.20
2017-10-31T14:27:32.505Z,27.20
2017-10-31T14:30:03.864Z,27.20
2017-10-31T14:32:35.045Z,27.20
2017-10-31T14:35:05.840Z,27.20
2017-10-31T14:37:37.052Z,27.10
2017-10-31T14:40:07.977Z,27.10
2017-10-31T14:42:38.857Z,27.10
2017-10-31T14:45:12.496Z,27.20
2017-10-31T14:47:44.343Z,27.20
2017-10-31T14:50:14.832Z,27.20
2017-10-31T14:52:45.673Z,27.20
2017-10-31T14:55:16.153Z,27.20
2017-10-31T14:57:46.553Z,27.20
2017-10-31T15:00:16.987Z,27.20
2017-10-31T15:02:47.423Z,27.30
2017-10-31T15:05:17.869Z,27.30
2017-10-31T15:07:48.277Z,27.30
2017-10-31T15:10:18.914Z,27.30
2017-10-31T15:12:49.337Z,27.30
2017-10-31T15:15:19.808Z,27.30
2017-10-31T15:17:50.214Z,27.30
2017-10-31T15:20:20.658Z,27.30
2017-10-31T15:22:52.211Z,27.20
2017-10-31T15:25:22.633Z,27.20
2017-10-31T15:27:53.034Z,27.20
2017-10-31T15:30:23.471Z,27.10
2017-10-31T15:32:53.861Z,27.20
2017-10-31T15:35:24.864Z,27.10
2017-10-31T15:37:55.261Z,27.10
2017-10-31T15:40:27.041Z,27.10
2017-10-31T15:42:57.469Z,27.10
2017-10-31T15:45:27.967Z,27.00
2017-10-31T15:47:58.347Z,27.00
2017-10-31T15:50:29.597Z,27.00
2017-10-31T15:53:01.139Z,27.00
2017-10-31T15:55:32.326Z,27.00
2017-10-31T15:58:03.607Z,27.00
2017-10-31T16:00:34.039Z,27.00
2017-10-31T16:03:04.502Z,27.00
2017-10-31T16:05:34.985Z,27.00
2017-10-31T16:08:05.379Z,27.00
2017-10-31T16:10:36.172Z,27.00
2017-10-31T16:13:07.321Z,27.00
2017-10-31T16:15:38.429Z,27.00
2017-10-31T16:18:08.864Z,27.00
2017-10-31T16:20:39.312Z,27.00
2017-10-31T16:23:11.000Z,26.90
2017-10-31T16:25:41.411Z,26.90
2017-10-31T16:28:12.777Z,27.00
2017-10-31T16:30:43.180Z,27.00
2017-10-31T16:33:14.372Z,27.00
2017-10-31T16:35:44.843Z,27.00
2017-10-31T16:38:15.996Z,27.00
2017-10-31T16:40:48.186Z,27.00
2017-10-31T16:43:18.633Z,27.00
2017-10-31T16:45:49.045Z,27.00
2017-10-31T16:48:19.542Z,27.00
2017-10-31T16:50:50.786Z,27.00
2017-10-31T16:53:22.209Z,27.00
2017-10-31T16:55:52.638Z,27.00
2017-10-31T16:58:23.715Z,27.00
2017-10-31T17:00:54.923Z,27.00
2017-10-31T17:03:25.293Z,27.00
2017-10-31T17:05:55.745Z,27.00
2017-10-31T17:08:26.188Z,27.00
2017-10-31T17:10:56.841Z,27.00
2017-10-31T17:13:27.184Z,27.00
2017-10-31T17:15:59.256Z,27.10
2017-10-31T17:18:30.495Z,27.10
2017-10-31T17:21:01.723Z,27.10
2017-10-31T17:23:32.664Z,27.10
2017-10-31T17:26:03.116Z,27.10
2017-10-31T17:28:34.756Z,27.10
2017-10-31T17:31:05.910Z,27.10
2017-10-31T17:33:37.056Z,27.00
2017-10-31T17:36:08.258Z,27.00
2017-10-31T17:38:38.701Z,27.00
2017-10-31T17:41:09.278Z,27.00
2017-10-31T17:43:39.665Z,27.00
2017-10-31T17:46:10.126Z,27.00
2017-10-31T17:48:40.507Z,27.00
2017-10-31T17:51:10.979Z,27.00
2017-10-31T17:53:41.755Z,27.00
2017-10-31T17:56:12.153Z,27.10
2017-10-31T17:58:42.685Z,27.10
2017-10-31T18:01:13.186Z,27.00
2017-10-31T18:03:44.321Z,27.00
2017-10-31T18:06:15.487Z,27.10
2017-10-31T18:08:45.915Z,27.00
2017-10-31T18:11:16.686Z,27.10
2017-10-31T18:13:48.073Z,27.10
2017-10-31T18:16:19.268Z,27.10
2017-10-31T18:18:49.661Z,27.10
2017-10-31T18:21:20.070Z,27.10
2017-10-31T18:23:51.536Z,27.00
2017-10-31T18:26:21.975Z,27.00
2017-10-31T18:28:52.702Z,27.00
2017-10-31T18:31:23.121Z,27.00
2017-10-31T18:33:53.514Z,27.00
2017-10-31T18:36:23.923Z,27.00
2017-10-31T18:38:54.388Z,27.00
2017-10-31T18:41:25.981Z,27.00
2017-10-31T18:43:56.410Z,26.90
2017-10-31T18:46:26.855Z,27.20
2017-10-31T18:48:57.252Z,27.00
2017-10-31T18:51:27.684Z,27.00
2017-10-31T18:53:58.063Z,27.00
2017-10-31T18:56:29.359Z,27.00
2017-10-31T18:59:00.305Z,26.90
2017-10-31T19:01:30.769Z,26.90
2017-10-31T19:04:01.217Z,26.90
2017-10-31T19:06:32.376Z,27.00
2017-10-31T19:09:02.780Z,27.00
2017-10-31T19:11:34.154Z,27.00
2017-10-31T19:14:04.554Z,27.00
2017-10-31T19:16:36.073Z,27.10
2017-10-31T19:19:06.530Z,27.10
2017-10-31T19:21:37.703Z,27.20
2017-10-31T19:24:08.153Z,27.10
2017-10-31T19:26:38.605Z,27.10
2017-10-31T19:29:09.497Z,27.20
2017-10-31T19:31:39.898Z,27.10
2017-10-31T19:34:11.105Z,27.20
2017-10-31T19:36:41.514Z,27.20
2017-10-31T19:39:11.946Z,27.20
2017-10-31T19:41:42.366Z,27.20
2017-10-31T19:44:12.788Z,27.20
2017-10-31T19:46:44.197Z,27.20
2017-10-31T19:49:15.368Z,27.20
2017-10-31T19:51:45.858Z,27.20
2017-10-31T19:54:16.282Z,27.20
2017-10-31T19:56:47.432Z,27.30
2017-10-31T19:59:18.970Z,27.30
2017-10-31T20:01:49.410Z,27.30
2017-10-31T20:04:20.513Z,27.30
2017-10-31T20:06:50.882Z,27.30
2017-10-31T20:09:22.972Z,27.30
2017-10-31T20:11:53.884Z,27.30
2017-10-31T20:14:25.064Z,27.30
2017-10-31T20:16:57.992Z,27.30
2017-10-31T20:19:28.395Z,27.30
2017-10-31T20:21:58.798Z,27.30
2017-10-31T20:24:29.252Z,27.30
2017-10-31T20:26:59.700Z,27.30
2017-10-31T20:29:30.601Z,27.30
2017-10-31T20:32:01.804Z,27.30
2017-10-31T20:34:32.260Z,27.30
2017-10-31T20:37:02.660Z,27.30
2017-10-31T20:39:33.879Z,27.30
2017-10-31T20:42:04.387Z,27.30
2017-10-31T20:44:34.837Z,27.30
2017-10-31T20:47:06.306Z,27.30
2017-10-31T20:49:37.485Z,27.30
2017-10-31T20:52:07.885Z,27.30
2017-10-31T20:54:39.096Z,27.30
2017-10-31T20:57:09.557Z,27.30
2017-10-31T20:59:41.289Z,27.30
2017-10-31T21:02:11.771Z,27.30
2017-10-31T21:04:42.223Z,27.30
2017-10-31T21:07:12.637Z,27.30
2017-10-31T21:09:42.976Z,27.30
2017-10-31T21:12:13.378Z,27.30
2017-10-31T21:14:43.754Z,27.30
2017-10-31T21:17:15.589Z,27.30
2017-10-31T21:19:46.036Z,27.30
2017-10-31T21:22:16.450Z,27.20
2017-10-31T21:24:46.905Z,27.20
2017-10-31T21:27:18.125Z,27.20
2017-10-31T21:29:48.733Z,27.20
2017-10-31T21:32:19.195Z,27.30
2017-10-31T21:34:50.020Z,27.20
2017-10-31T21:37:21.291Z,27.20
2017-10-31T21:39:52.520Z,27.20
2017-10-31T21:42:22.989Z,27.20
2017-10-31T21:44:53.399Z,27.20
2017-10-31T21:47:25.020Z,27.20
2017-10-31T21:49:56.201Z,27.20
2017-10-31T21:52:27.417Z,27.20
2017-10-31T21:54:57.886Z,27.20
2017-10-31T21:57:28.265Z,27.20
2017-10-31T21:59:59.786Z,27.20
2017-10-31T22:02:30.129Z,27.20
2017-10-31T22:05:00.737Z,27.20
2017-10-31T22:07:31.148Z,27.20
2017-10-31T22:10:01.588Z,27.10
2017-10-31T22:12:32.068Z,27.20
2017-10-31T22:15:03.241Z,27.20
2017-10-31T22:17:34.036Z,27.10
2017-10-31T22:20:04.501Z,27.10
2017-10-31T22:22:34.900Z,27.10
2017-10-31T22:25:06.072Z,27.10
2017-10-31T22:27:36.510Z,27.10
2017-10-31T22:30:07.239Z,27.10
2017-10-31T22:32:39.281Z,27.10
2017-10-31T22:35:11.361Z,27.10
2017-10-31T22:37:41.826Z,27.10
2017-10-31T22:40:17.248Z,27.00
2017-10-31T22:42:47.713Z,27.00
2017-10-31T22:45:18.106Z,27.10
2017-10-31T22:47:48.920Z,27.00
2017-10-31T22:50:19.346Z,27.00
2017-10-31T22:52:49.772Z,27.00
2017-10-31T22:55:20.197Z,27.00
2017-10-31T22:57:50.669Z,27.00
2017-10-31T23:00:21.365Z,27.00
2017-10-31T23:02:51.921Z,27.00
2017-10-31T23:05:22.920Z,27.00
2017-10-31T23:07:54.093Z,27.00
2017-10-31T23:10:24.548Z,26.90
2017-10-31T23:12:55.022Z,27.00
2017-10-31T23:15:26.216Z,26.90
2017-10-31T23:17:57.191Z,26.90
2017-10-31T23:20:28.406Z,26.90
2017-10-31T23:22:58.860Z,26.90
2017-10-31T23:25:30.061Z,26.90
2017-10-31T23:28:00.468Z,26.90
2017-10-31T23:30:30.985Z,26.90
2017-10-31T23:33:01.385Z,26.90
2017-10-31T23:35:32.844Z,26.90
2017-10-31T23:38:04.024Z,26.80
2017-10-31T23:40:34.448Z,26.80
2017-10-31T23:43:04.882Z,26.80
2017-10-31T23:45:35.319Z,26.80
2017-10-31T23:48:05.741Z,26.80
2017-10-31T23:50:36.164Z,26.80
2017-10-31T23:53:06.602Z,26.80
2017-10-31T23:55:37.055Z,26.80
2017-10-31T23:58:07.474Z,26.80
